Lake Nepessing, Michigan
Current Conditions -  °F | °C
As of 2:34 PM on Thursday 27 Nov 2014 (Local Time) from KD95 Reporting Station
Overcast Overcast  
Wind Chill: 20°   Ceiling: 1700
Heat Index: 29°   Visibility: 10mi
Dew Point: 23°   Wind: 10mph
Humidity: 78%   Direction: 340°NNW
Pressure: 30.15"   Gusts: 16mph
Location:  43.0516°N, 83.3333°W
Report Text: KD95 271934Z AUTO 34009G14KT 10SM BKN017 BKN025 OVC031 M01/M05 A3015 RMK AO2 T10151048
Loading
Personal Weather Stations






























Interactive Weather Map New forecast layout! Learn more

10-Day Weather Forecast

Advertisements
Track Severe Weather on mobile